createdAt,value
2022-12-15T00:02:19.979Z,100100.91
2022-12-15T00:05:06.637Z,100105.44
2022-12-15T00:07:53.341Z,100101.88
2022-12-15T00:10:39.221Z,100102.88
2022-12-15T00:13:32.879Z,100098.50
2022-12-15T00:16:19.036Z,100104.72
2022-12-15T00:19:04.851Z,100108.22
2022-12-15T00:21:50.861Z,100110.06
2022-12-15T00:24:36.826Z,100103.88
2022-12-15T00:27:23.653Z,100098.50
2022-12-15T00:30:09.583Z,100110.22
2022-12-15T00:32:55.755Z,100106.56
2022-12-15T00:35:41.601Z,100105.72
2022-12-15T00:38:29.989Z,100097.78
2022-12-15T00:40:59.674Z,100097.78
2022-12-15T00:43:28.869Z,100096.13
2022-12-15T00:46:15.541Z,100095.13
2022-12-15T00:48:43.678Z,100089.75
2022-12-15T00:51:11.734Z,100088.06
2022-12-15T00:53:58.265Z,100093.44
2022-12-15T00:56:44.642Z,100101.47
2022-12-15T00:59:32.814Z,100103.31
2022-12-15T01:02:19.067Z,100093.44
2022-12-15T01:05:04.934Z,100103.31
2022-12-15T01:07:51.264Z,100102.44
2022-12-15T01:10:38.904Z,100111.47
2022-12-15T01:13:25.092Z,100112.31
2022-12-15T01:16:11.388Z,100116.84
2022-12-15T01:18:56.879Z,100116.84
2022-12-15T01:22:33.870Z,100123.16
2022-12-15T01:25:01.168Z,100121.50
2022-12-15T01:27:28.459Z,100125.84
2022-12-15T01:29:55.703Z,100124.16
2022-12-15T01:32:22.993Z,100133.22
2022-12-15T01:34:50.357Z,100138.56
2022-12-15T01:37:17.727Z,100146.63
2022-12-15T01:40:23.237Z,100139.56
2022-12-15T01:42:51.310Z,100150.13
2022-12-15T01:45:47.155Z,100137.72
2022-12-15T01:48:20.115Z,100158.34
2022-12-15T01:51:00.314Z,100152.97
2022-12-15T01:53:34.057Z,100146.78
2022-12-15T01:56:03.867Z,100139.56
2022-12-15T01:58:31.374Z,100125.31
2022-12-15T02:00:58.783Z,100127.13
2022-12-15T02:03:26.329Z,100124.44
2022-12-15T02:05:55.346Z,100121.78
2022-12-15T02:08:22.769Z,100112.03
2022-12-15T02:11:11.633Z,100105.84
2022-12-15T02:14:09.249Z,100104.16
2022-12-15T02:17:04.169Z,100108.53
2022-12-15T02:19:34.323Z,100118.41
2022-12-15T02:22:04.322Z,100115.72
2022-12-15T02:24:56.223Z,100106.00
2022-12-15T02:27:41.857Z,100104.28
2022-12-15T02:30:17.166Z,100102.47
2022-12-15T02:32:56.678Z,100104.28
2022-12-15T02:35:53.668Z,100136.44
2022-12-15T02:38:37.222Z,100157.91
2022-12-15T02:41:06.683Z,100169.63
2022-12-15T02:43:38.961Z,100164.25
2022-12-15T02:46:31.257Z,100168.78
2022-12-15T02:49:19.004Z,100158.06
2022-12-15T02:52:03.146Z,100141.13
2022-12-15T02:55:07.501Z,100135.91
2022-12-15T02:57:42.334Z,100134.09
2022-12-15T03:00:11.505Z,100118.97
2022-12-15T03:02:44.847Z,100121.66
2022-12-15T03:05:14.039Z,100113.59
2022-12-15T03:07:42.865Z,100121.66
2022-12-15T03:10:13.079Z,100113.59
2022-12-15T03:12:40.542Z,100120.81
2022-12-15T03:15:08.488Z,100130.69
2022-12-15T03:17:35.849Z,100129.00
2022-12-15T03:20:03.699Z,100132.53
2022-12-15T03:22:31.804Z,100150.44
2022-12-15T03:24:59.124Z,100154.97
2022-12-15T03:27:26.535Z,100153.13
2022-12-15T03:29:53.769Z,100151.44
2022-12-15T03:32:21.206Z,100166.53
2022-12-15T03:34:48.426Z,100160.31
2022-12-15T03:37:15.991Z,100164.00
2022-12-15T03:39:43.267Z,100168.50
2022-12-15T03:42:10.608Z,100171.16
2022-12-15T03:44:37.886Z,100173.84
2022-12-15T03:47:05.937Z,100170.47
2022-12-15T03:49:33.234Z,100182.88
2022-12-15T03:52:00.538Z,100172.31
2022-12-15T03:54:27.820Z,100176.84
2022-12-15T03:56:55.380Z,100176.84
2022-12-15T03:59:22.726Z,100172.44
2022-12-15T04:01:50.124Z,100179.53
2022-12-15T04:04:17.718Z,100185.84
2022-12-15T04:06:45.093Z,100186.72
2022-12-15T04:09:12.324Z,100185.84
2022-12-15T04:11:39.701Z,100183.16
2022-12-15T04:14:06.984Z,100178.78
2022-12-15T04:16:34.416Z,100177.97
2022-12-15T04:19:20.348Z,100185.16
2022-12-15T04:21:47.677Z,100188.81
2022-12-15T04:24:33.565Z,100201.22
2022-12-15T04:27:19.445Z,100187.13
2022-12-15T04:30:05.123Z,100171.03
2022-12-15T04:32:50.893Z,100179.06
2022-12-15T04:35:37.318Z,100176.41
2022-12-15T04:38:22.995Z,100172.88
2022-12-15T04:41:08.818Z,100179.06
2022-12-15T04:43:54.603Z,100178.22
2022-12-15T04:46:40.478Z,100181.75
2022-12-15T04:49:26.366Z,100180.91
2022-12-15T04:52:12.113Z,100178.22
2022-12-15T04:54:57.877Z,100180.06
2022-12-15T04:57:43.685Z,100185.44
2022-12-15T05:00:30.198Z,100182.75
2022-12-15T05:03:29.839Z,100187.28
2022-12-15T05:06:16.374Z,100187.41
2022-12-15T05:09:02.228Z,100192.78
2022-12-15T05:11:48.230Z,100191.06
2022-12-15T05:14:33.946Z,100190.94
2022-12-15T05:17:19.815Z,100192.78
2022-12-15T05:20:05.515Z,100198.13
2022-12-15T05:22:51.414Z,100201.66
2022-12-15T05:25:37.553Z,100215.06
2022-12-15T05:28:26.055Z,100217.75
2022-12-15T05:31:12.008Z,100221.41
2022-12-15T05:33:39.400Z,100230.31
2022-12-15T05:36:07.084Z,100235.66
2022-12-15T05:38:34.393Z,100242.84
2022-12-15T05:41:01.858Z,100248.34
2022-12-15T05:43:29.739Z,100232.25
2022-12-15T05:45:57.399Z,100230.56
2022-12-15T05:48:25.524Z,100222.53
2022-12-15T05:50:52.811Z,100230.56
2022-12-15T05:53:20.235Z,100231.56
2022-12-15T05:55:47.547Z,100239.59
2022-12-15T05:58:14.794Z,100251.16
2022-12-15T06:00:42.016Z,100255.69
2022-12-15T06:03:09.373Z,100268.25
2022-12-15T06:05:36.761Z,100270.91
2022-12-15T06:08:04.201Z,100270.91
2022-12-15T06:10:31.561Z,100282.47
2022-12-15T06:12:58.913Z,100286.13
2022-12-15T06:15:26.162Z,100288.81
2022-12-15T06:17:55.813Z,100303.06
2022-12-15T06:20:23.278Z,100287.13
2022-12-15T06:22:50.590Z,100283.44
2022-12-15T06:25:18.069Z,100287.13
2022-12-15T06:27:45.402Z,100283.59
2022-12-15T06:30:13.177Z,100291.63
2022-12-15T06:32:40.486Z,100294.31
2022-12-15T06:35:08.232Z,100281.75
2022-12-15T06:37:35.770Z,100287.13
2022-12-15T06:40:03.189Z,100290.78
2022-12-15T06:42:30.522Z,100293.47
2022-12-15T06:44:57.824Z,100288.13
2022-12-15T06:47:25.205Z,100293.47
2022-12-15T06:49:52.487Z,100298.00
2022-12-15T06:52:19.751Z,100291.78
2022-12-15T06:54:47.038Z,100302.50
2022-12-15T06:57:14.445Z,100323.94
2022-12-15T06:59:41.726Z,100324.91
2022-12-15T07:02:23.720Z,100315.19
2022-12-15T07:04:54.525Z,100307.97
2022-12-15T07:07:21.752Z,100308.97
2022-12-15T07:09:49.017Z,100300.94
2022-12-15T07:12:16.401Z,100306.28
2022-12-15T07:14:46.468Z,100306.28
2022-12-15T07:17:20.449Z,100322.22
2022-12-15T07:19:47.672Z,100332.94
2022-12-15T07:22:14.936Z,100339.19
2022-12-15T07:24:42.165Z,100339.19
2022-12-15T07:27:09.494Z,100340.03
2022-12-15T07:29:36.777Z,100352.44
2022-12-15T07:32:04.738Z,100355.25
2022-12-15T07:34:32.241Z,100346.22
2022-12-15T07:36:59.583Z,100332.81
2022-12-15T07:39:27.468Z,100334.66
2022-12-15T07:41:54.800Z,100339.03
2022-12-15T07:44:22.126Z,100337.34
2022-12-15T07:46:49.516Z,100352.56
2022-12-15T07:49:17.634Z,100348.19
2022-12-15T07:51:45.092Z,100331.25
2022-12-15T07:54:14.415Z,100334.78
2022-12-15T07:56:42.361Z,100337.47
2022-12-15T07:59:10.052Z,100346.50
2022-12-15T08:01:37.505Z,100354.53
2022-12-15T08:04:05.096Z,100356.38
2022-12-15T08:06:32.661Z,100348.31
2022-12-15T08:08:59.980Z,100360.88
2022-12-15T08:11:27.358Z,100372.44
2022-12-15T08:14:03.531Z,100383.16
2022-12-15T08:16:34.531Z,100383.16
2022-12-15T08:19:03.787Z,100390.34
2022-12-15T08:21:32.287Z,100392.19
2022-12-15T08:24:02.825Z,100395.81
2022-12-15T08:26:31.260Z,100401.19
2022-12-15T08:29:32.169Z,100405.69
2022-12-15T08:31:51.506Z,100410.06
2022-12-15T08:34:19.012Z,100408.25
2022-12-15T08:36:46.416Z,100411.91
2022-12-15T08:39:13.943Z,100415.56
2022-12-15T08:41:41.680Z,100413.88
2022-12-15T08:44:09.212Z,100412.31
2022-12-15T08:46:36.717Z,100416.81
2022-12-15T08:49:04.553Z,100418.81
2022-12-15T08:51:32.802Z,100419.78
2022-12-15T08:54:01.067Z,100415.41
2022-12-15T08:56:29.717Z,100411.88
2022-12-15T08:58:59.703Z,100413.72
2022-12-15T09:01:31.190Z,100416.50
2022-12-15T09:03:59.519Z,100405.94
2022-12-15T09:06:33.107Z,100410.31
2022-12-15T09:09:02.820Z,100420.06
2022-12-15T09:11:30.740Z,100425.41
2022-12-15T09:13:58.853Z,100438.66
2022-12-15T09:16:27.964Z,100441.34
2022-12-15T09:18:58.187Z,100449.25
2022-12-15T09:21:29.013Z,100434.00
2022-12-15T09:24:00.852Z,100442.91
2022-12-15T09:26:33.634Z,100424.16
2022-12-15T09:29:02.085Z,100425.13
2022-12-15T09:31:32.878Z,100425.13
2022-12-15T09:34:01.292Z,100421.50
2022-12-15T09:36:30.411Z,100400.16
2022-12-15T09:38:58.785Z,100398.34
2022-12-15T09:41:34.725Z,100394.81
2022-12-15T09:44:24.685Z,100392.97
2022-12-15T09:46:54.756Z,100381.31
2022-12-15T09:49:38.202Z,100387.63
2022-12-15T09:52:11.093Z,100396.50
2022-12-15T09:54:41.830Z,100399.19
2022-12-15T09:57:24.549Z,100387.63
2022-12-15T10:00:17.701Z,100384.94
2022-12-15T10:03:00.467Z,100369.72
2022-12-15T10:06:14.784Z,100368.88
2022-12-15T10:08:40.988Z,100372.53
2022-12-15T10:11:24.500Z,100375.22
2022-12-15T10:13:57.932Z,100380.56
2022-12-15T10:16:28.125Z,100378.72
2022-12-15T10:19:04.758Z,100380.56
2022-12-15T10:21:32.599Z,100392.13
2022-12-15T10:25:07.301Z,100387.75
2022-12-15T10:27:43.305Z,100380.56
2022-12-15T10:30:13.936Z,100370.84
2022-12-15T10:32:51.925Z,100365.50
2022-12-15T10:35:30.185Z,100356.59
2022-12-15T10:38:05.242Z,100354.78
2022-12-15T10:43:39.487Z,100336.13
2022-12-15T10:46:19.058Z,100339.69
2022-12-15T10:48:49.950Z,100343.31
2022-12-15T10:51:42.631Z,100345.16
2022-12-15T10:54:09.870Z,100348.69
2022-12-15T10:56:50.201Z,100334.34
2022-12-15T10:59:33.993Z,100323.72
2022-12-15T11:02:27.445Z,100315.69
2022-12-15T11:04:54.805Z,100312.19
2022-12-15T11:07:23.748Z,100292.56
2022-12-15T11:10:00.428Z,100293.41
2022-12-15T11:12:50.659Z,100298.78
2022-12-15T11:15:24.126Z,100307.66
2022-12-15T11:18:20.799Z,100301.47
2022-12-15T11:20:58.672Z,100280.88
2022-12-15T11:23:36.251Z,100289.06
2022-12-15T11:26:18.694Z,100276.50
2022-12-15T11:28:53.063Z,100258.75
2022-12-15T11:31:27.117Z,100262.28
2022-12-15T11:33:55.091Z,100265.78
2022-12-15T11:36:48.481Z,100267.63
2022-12-15T11:39:15.848Z,100267.63
2022-12-15T11:42:04.500Z,100262.28
2022-12-15T11:44:45.337Z,100250.81
2022-12-15T11:47:44.917Z,100234.75
2022-12-15T11:50:25.535Z,100237.44
2022-12-15T11:53:18.363Z,100238.28
2022-12-15T11:55:59.251Z,100233.78
2022-12-15T11:58:32.578Z,100222.22
2022-12-15T12:01:06.039Z,100218.56
2022-12-15T12:03:36.338Z,100224.88
2022-12-15T12:06:36.160Z,100235.59
2022-12-15T12:09:31.999Z,100213.31
2022-12-15T12:12:21.066Z,100216.00
2022-12-15T12:14:50.884Z,100216.72
2022-12-15T12:17:29.000Z,100200.78
2022-12-15T12:20:01.283Z,100200.78
2022-12-15T12:22:37.630Z,100212.38
2022-12-15T12:25:12.925Z,100207.00
2022-12-15T12:27:55.092Z,100204.31
2022-12-15T12:30:25.998Z,100207.84
2022-12-15T12:33:02.670Z,100217.72
2022-12-15T12:35:41.015Z,100211.50
2022-12-15T12:38:12.534Z,100205.28
2022-12-15T12:40:46.716Z,100214.16
2022-12-15T12:43:34.090Z,100207.00
2022-12-15T12:46:27.115Z,100213.22
2022-12-15T12:49:07.152Z,100207.97
2022-12-15T12:51:40.746Z,100201.66
2022-12-15T12:54:31.017Z,100199.94
2022-12-15T12:56:58.723Z,100195.56
2022-12-15T12:59:29.112Z,100183.03
2022-12-15T13:02:33.924Z,100176.81
2022-12-15T13:05:22.676Z,100175.13
2022-12-15T13:08:17.401Z,100168.78
2022-12-15T13:10:47.286Z,100172.47
2022-12-15T13:13:31.302Z,100167.22
2022-12-15T13:16:10.933Z,100176.13
2022-12-15T13:18:57.026Z,100180.50
2022-12-15T13:21:55.152Z,100185.97
2022-12-15T13:24:37.536Z,100189.63
2022-12-15T13:27:20.402Z,100189.63
2022-12-15T13:30:02.767Z,100192.31
2022-12-15T13:32:34.445Z,100187.81
2022-12-15T13:35:21.850Z,100167.38
2022-12-15T13:37:50.860Z,100166.38
2022-12-15T13:40:39.393Z,100162.00
2022-12-15T13:43:06.658Z,100166.53
2022-12-15T13:45:48.854Z,100167.38
2022-12-15T13:48:53.496Z,100166.53
2022-12-15T13:51:45.829Z,100157.66
2022-12-15T13:54:23.687Z,100160.31
2022-12-15T13:57:13.062Z,100158.50
2022-12-15T13:59:40.295Z,100138.06
2022-12-15T14:02:27.653Z,100129.19
2022-12-15T14:05:12.527Z,100127.34
2022-12-15T14:07:42.562Z,100117.59
2022-12-15T14:10:19.648Z,100112.38
2022-12-15T14:12:50.145Z,100111.41
2022-12-15T14:15:25.349Z,100104.19
2022-12-15T14:17:55.638Z,100119.44
2022-12-15T14:20:26.472Z,100125.63
2022-12-15T14:22:55.002Z,100122.94
2022-12-15T14:25:29.587Z,100114.06
2022-12-15T14:27:57.261Z,100120.28
2022-12-15T14:30:29.915Z,100121.16
2022-12-15T14:33:13.411Z,100115.78
2022-12-15T14:35:49.432Z,100114.06
2022-12-15T14:38:26.370Z,100112.38
2022-12-15T14:40:57.293Z,100116.06
2022-12-15T14:43:32.880Z,100095.63
2022-12-15T14:46:11.619Z,100091.25
2022-12-15T14:48:42.975Z,100094.91
2022-12-15T14:51:13.861Z,100101.25
2022-12-15T14:53:43.483Z,100092.50
2022-12-15T14:56:25.753Z,100074.59
2022-12-15T14:59:18.649Z,100073.75
2022-12-15T15:01:58.516Z,100078.28
2022-12-15T15:03:11.248Z,100336.03
2022-12-15T15:04:32.772Z,100076.59
2022-12-15T15:07:02.705Z,100065.88
2022-12-15T15:09:39.487Z,100051.66
2022-12-15T15:12:08.494Z,100064.19
2022-12-15T15:14:41.936Z,100053.59
2022-12-15T15:17:35.820Z,100063.47
2022-12-15T15:20:08.112Z,100065.31
2022-12-15T15:22:41.850Z,100064.47
2022-12-15T15:25:39.451Z,100056.44
2022-12-15T15:28:21.312Z,100053.91
2022-12-15T15:31:05.415Z,100053.91
2022-12-15T15:33:33.433Z,100052.19
2022-12-15T15:36:02.682Z,100048.69
2022-12-15T15:38:37.865Z,100033.47
2022-12-15T15:41:14.034Z,100029.94
2022-12-15T15:43:41.601Z,100026.41
2022-12-15T15:46:15.175Z,100012.19
2022-12-15T15:49:04.754Z,100007.69
2022-12-15T15:51:33.326Z,100002.31
2022-12-15T15:54:08.269Z,100002.16
2022-12-15T15:56:35.668Z,99988.78
2022-12-15T15:59:11.307Z,99985.25
2022-12-15T16:01:38.762Z,99978.22
2022-12-15T16:04:09.140Z,99986.97
2022-12-15T16:06:38.795Z,99985.25
2022-12-15T16:09:12.783Z,99971.88
2022-12-15T16:11:40.352Z,99963.00
2022-12-15T16:14:17.781Z,99960.31
2022-12-15T16:16:45.757Z,99963.84
2022-12-15T16:19:13.173Z,99963.00
2022-12-15T16:21:42.677Z,99960.19
2022-12-15T16:24:15.221Z,99964.69
2022-12-15T16:26:47.842Z,99960.31
2022-12-15T16:29:16.699Z,99975.41
2022-12-15T16:31:49.956Z,99971.88
2022-12-15T16:34:17.723Z,99971.88
2022-12-15T16:36:45.311Z,99971.88
2022-12-15T16:39:35.981Z,99962.00
2022-12-15T16:42:04.192Z,99967.34
2022-12-15T16:44:31.572Z,99969.19
2022-12-15T16:46:59.141Z,99961.16
2022-12-15T16:49:27.873Z,99959.47
2022-12-15T16:51:55.615Z,99955.81
2022-12-15T16:54:26.574Z,99955.81
2022-12-15T16:56:56.030Z,99953.97
2022-12-15T16:59:34.974Z,99946.81
2022-12-15T17:02:33.467Z,99929.88
2022-12-15T17:05:00.926Z,99921.84
2022-12-15T17:07:28.439Z,99917.34
2022-12-15T17:09:56.568Z,99912.84
2022-12-15T17:12:23.865Z,99903.97
2022-12-15T17:14:51.126Z,99901.28
2022-12-15T17:17:19.931Z,99907.50
2022-12-15T17:20:19.997Z,99901.13
2022-12-15T17:22:37.099Z,99897.63
2022-12-15T17:25:04.961Z,99889.59
2022-12-15T17:27:32.346Z,99883.41
2022-12-15T17:30:00.890Z,99887.91
2022-12-15T17:32:28.161Z,99889.59
2022-12-15T17:34:55.895Z,99880.72
2022-12-15T17:37:26.149Z,99870.84
2022-12-15T17:39:56.607Z,99862.81
2022-12-15T17:42:23.901Z,99862.81
2022-12-15T17:44:51.796Z,99861.13
2022-12-15T17:47:19.647Z,99860.13
2022-12-15T17:49:47.535Z,99853.94
2022-12-15T17:52:27.295Z,99868.28
2022-12-15T17:54:55.206Z,99862.09
2022-12-15T17:57:22.979Z,99858.59
2022-12-15T17:59:50.341Z,99846.03
2022-12-15T18:02:17.755Z,99833.50
2022-12-15T18:04:45.302Z,99830.69
2022-12-15T18:07:19.352Z,99810.25
2022-12-15T18:09:47.882Z,99809.25
2022-12-15T18:12:24.471Z,99825.16
2022-12-15T18:14:52.112Z,99832.06
2022-12-15T18:17:20.323Z,99823.88
2022-12-15T18:19:47.985Z,99826.44
2022-12-15T18:22:23.691Z,99835.16
2022-12-15T18:24:53.109Z,99806.53
2022-12-15T18:27:28.949Z,99804.69
2022-12-15T18:29:56.793Z,99815.28
2022-12-15T18:32:26.595Z,99823.16
2022-12-15T18:34:54.571Z,99816.78
2022-12-15T18:37:24.737Z,99816.66
2022-12-15T18:39:52.818Z,99821.03
2022-12-15T18:42:22.865Z,99813.00
2022-12-15T18:44:53.559Z,99821.88
2022-12-15T18:47:25.659Z,99834.13
2022-12-15T18:49:53.004Z,99837.66
2022-12-15T18:52:23.312Z,99837.50
2022-12-15T18:54:52.594Z,99834.69
2022-12-15T18:57:30.856Z,99836.38
2022-12-15T19:00:01.909Z,99831.00
2022-12-15T19:02:29.340Z,99848.59
2022-12-15T19:04:56.837Z,99851.16
2022-12-15T19:07:24.445Z,99842.28
2022-12-15T19:09:51.938Z,99816.16
2022-12-15T19:12:19.290Z,99806.16
2022-12-15T19:14:48.979Z,99779.38
2022-12-15T19:17:39.653Z,99771.16
2022-12-15T19:20:37.329Z,99758.47
2022-12-15T19:23:06.488Z,99762.84
2022-12-15T19:25:35.334Z,99770.72
2022-12-15T19:28:02.719Z,99761.69
2022-12-15T19:30:38.588Z,99752.50
2022-12-15T19:33:10.210Z,99761.38
2022-12-15T19:35:38.966Z,99743.63
2022-12-15T19:38:07.337Z,99738.09
2022-12-15T19:40:36.966Z,99717.69
2022-12-15T19:43:04.492Z,99705.97
2022-12-15T19:45:32.988Z,99709.63
2022-12-15T19:48:00.549Z,99707.78
2022-12-15T19:50:36.793Z,99704.28
2022-12-15T19:53:16.214Z,99699.75
2022-12-15T19:55:44.251Z,99727.38
2022-12-15T19:58:27.814Z,99730.06
2022-12-15T20:01:01.811Z,99709.50
2022-12-15T20:03:31.059Z,99718.38
2022-12-15T20:06:01.084Z,99711.31
2022-12-15T20:08:34.488Z,99691.59
2022-12-15T20:11:02.069Z,99690.59
2022-12-15T20:13:30.023Z,99711.19
2022-12-15T20:15:58.311Z,99735.13
2022-12-15T20:18:25.776Z,99727.94
2022-12-15T20:20:53.547Z,99718.22
2022-12-15T20:23:26.668Z,99727.81
2022-12-15T20:25:54.804Z,99713.69
2022-12-15T20:28:27.846Z,99697.50
2022-12-15T20:30:56.286Z,99698.31
2022-12-15T20:33:23.545Z,99733.16
2022-12-15T20:35:51.395Z,99758.13
2022-12-15T20:38:46.000Z,99786.59
2022-12-15T20:41:20.767Z,99777.53
2022-12-15T20:43:49.013Z,99764.00
2022-12-15T20:46:22.945Z,99786.13
2022-12-15T20:48:52.344Z,99808.41
2022-12-15T20:51:44.900Z,99811.09
2022-12-15T20:54:20.657Z,99805.72
2022-12-15T20:56:49.857Z,99802.22
2022-12-15T20:59:20.927Z,99772.72
2022-12-15T21:01:48.799Z,99746.63
2022-12-15T21:04:32.751Z,99694.56
2022-12-15T21:07:00.359Z,99708.97
2022-12-15T21:09:34.134Z,99713.19
2022-12-15T21:12:07.344Z,99747.00
2022-12-15T21:14:36.933Z,99752.38
2022-12-15T21:17:04.512Z,99741.34
2022-12-15T21:19:31.865Z,99724.44
2022-12-15T21:22:01.109Z,99721.59
2022-12-15T21:24:28.953Z,99746.56
2022-12-15T21:27:34.931Z,99768.84
2022-12-15T21:30:02.500Z,99760.66
2022-12-15T21:32:35.749Z,99740.91
2022-12-15T21:35:05.568Z,99739.06
2022-12-15T21:38:07.423Z,99741.72
2022-12-15T21:40:38.788Z,99744.41
2022-12-15T21:43:14.527Z,99739.72
2022-12-15T21:45:51.164Z,99765.56
2022-12-15T21:48:37.186Z,99751.16
2022-12-15T21:51:04.709Z,99740.44
2022-12-15T21:53:32.579Z,99743.78
2022-12-15T21:56:05.607Z,99747.16
2022-12-15T21:58:33.372Z,99740.13
2022-12-15T22:01:06.907Z,99722.34
2022-12-15T22:03:38.523Z,99731.75
2022-12-15T22:06:59.564Z,99724.59
2022-12-15T22:14:03.508Z,99736.16
2022-12-15T22:16:30.902Z,99736.16
2022-12-15T22:18:58.627Z,99749.56
2022-12-15T22:21:26.080Z,99766.34
2022-12-15T22:23:54.413Z,99767.19
2022-12-15T22:26:30.506Z,99786.78
2022-12-15T22:29:01.594Z,99766.03
2022-12-15T22:31:29.123Z,99755.31
2022-12-15T22:33:56.573Z,99751.63
2022-12-15T22:36:23.898Z,99763.19
2022-12-15T22:38:51.412Z,99771.25
2022-12-15T22:41:21.471Z,99767.72
2022-12-15T22:43:52.073Z,99773.91
2022-12-15T22:46:22.556Z,99771.09
2022-12-15T22:48:52.376Z,99772.78
2022-12-15T22:51:20.127Z,99759.38
2022-12-15T22:53:47.544Z,99773.63
2022-12-15T22:56:30.973Z,99770.09
2022-12-15T22:59:01.615Z,99771.78
2022-12-15T23:01:29.730Z,99769.09
2022-12-15T23:03:57.647Z,99759.22
2022-12-15T23:06:27.163Z,99763.59
2022-12-15T23:08:56.243Z,99770.78
2022-12-15T23:11:39.526Z,99761.88
2022-12-15T23:14:18.411Z,99757.38
2022-12-15T23:16:46.650Z,99759.22
2022-12-15T23:19:24.030Z,99748.47
2022-12-15T23:21:51.816Z,99755.56
2022-12-15T23:24:19.108Z,99752.88
2022-12-15T23:26:46.402Z,99754.69
2022-12-15T23:29:14.153Z,99750.19
2022-12-15T23:31:41.649Z,99749.31
2022-12-15T23:34:08.984Z,99769.09
2022-12-15T23:36:36.509Z,99777.00
2022-12-15T23:39:03.821Z,99782.38
2022-12-15T23:41:31.282Z,99778.69
2022-12-15T23:43:58.672Z,99792.94
2022-12-15T23:46:26.029Z,99791.09
2022-12-15T23:48:53.411Z,99792.09
2022-12-15T23:51:22.322Z,99791.25
2022-12-15T23:53:49.673Z,99782.19
2022-12-15T23:56:21.385Z,99770.78
2022-12-15T23:58:58.833Z,99772.63
